Historique des mesures à Cassis (13260), France
Quotidien Résumé Novembre 1, 2017 Unités:  Métrique    US   Métrique/US
« Précédent (Jour)
Suivant (Jour) »
Quotidien Hebdomadaire Mensuel Annuel Période au choix
  Maximum: Minimum: Moyenne:
Température: TemperatureC °C 12.8 °C 15 °C
Point de rosée: DewpointC °C 6.4 °C 9.1 °C
Humidité: Humidity % 62 % 64 %
Vitesse du vent: 0 km/h 0 km/h 0 km/h
Rafales: 0 km/h - -
Vent:- - North
Pression: PressurehPa hPa 1018.8 hPa -
Précipitations: 0.0 mm    
Historical Graphs
 
 
Mesures pour : Novembre 1, 2017
Heure Temperature Point de rosée Pression Vent Vitesse du vent Rafales Humidité Pluie (par heure) Conditions
TemperatureC °C DewpointC °C PressurehPa hPa Calm     Humidity % HourlyPrecipMM mm SoftwareType W/m2
00:11 13.8 °C 7.9 °C 1019.9 hPa Calm     68 % 0.0 mm open2300-1.11 W/m2
01:10 14.0 °C 7.9 °C 1019.5 hPa Calm     67 % 0.0 mm open2300-1.11 W/m2
02:11 13.6 °C 7.6 °C 1019.5 hPa Calm     67 % 0.0 mm open2300-1.11 W/m2
03:10 13.8 °C 7.8 °C 1019.5 hPa Calm     67 % 0.0 mm open2300-1.11 W/m2
05:10 14.1 °C 7.4 °C 1019.5 hPa Calm     64 % 0.0 mm open2300-1.11 W/m2
06:11 13.4 °C 6.9 °C 1019.2 hPa Calm     65 % 0.0 mm open2300-1.11 W/m2
07:10 12.8 °C 6.4 °C 1019.5 hPa Calm     65 % 0.0 mm open2300-1.11 W/m2
08:11 12.9 °C 6.7 °C 1020.5 hPa Calm     66 % 0.0 mm open2300-1.11 W/m2
09:10 14.9 °C 8.6 °C 1020.9 hPa Calm     66 % 0.0 mm open2300-1.11 W/m2
10:11 16.4 °C 10.1 °C 1020.9 hPa Calm     66 % 0.0 mm open2300-1.11 W/m2
11:10 17.9 °C 10.5 °C 1020.9 hPa Calm     62 % 0.0 mm open2300-1.11 W/m2
12:11 18.6 °C 11.2 °C 1020.5 hPa Calm   14 km/h 62 % 0.0 mm open2300-1.11 W/m2
13:11 18.9 °C 11.7 °C 1020.2 hPa Calm   1.8 km/h 63 % 0.0 mm open2300-1.11 W/m2
14:11 19.1 °C 11.9 °C 1019.5 hPa Calm     63 % 0.0 mm open2300-1.11 W/m2
15:10 19.1 °C 11.9 °C 1019.2 hPa Calm     63 % 0.0 mm open2300-1.11 W/m2
16:11 18.8 °C 11.6 °C 1019.2 hPa Calm   4.7 km/h 63 % 0.0 mm open2300-1.11 W/m2
17:10 17.8 °C 11.1 °C 1018.8 hPa Calm   3.4 km/h 65 % 0.0 mm open2300-1.11 W/m2
18:11 16.6 °C 10.7 °C 1019.2 hPa Calm     68 % 0.0 mm open2300-1.11 W/m2
19:10 15.4 °C 10.2 °C 1019.5 hPa Calm     71 % 0.0 mm open2300-1.11 W/m2
20:11 14.5 °C 9.7 °C 1019.5 hPa Calm     73 % 0.0 mm open2300-1.11 W/m2
21:10 14.3 °C 9.7 °C 1019.5 hPa Calm     74 % 0.0 mm open2300-1.11 W/m2
22:11 14.4 °C 10.0 °C 1019.5 hPa Calm     75 % 0.0 mm open2300-1.11 W/m2
23:10 13.9 °C 9.7 °C 1019.5 hPa Calm     76 % 0.0 mm open2300-1.11 W/m2
Observations météo à CASSIS
WU-History script by Weather Underground - 1 mb